createdAt,value
2014-07-06T00:00:47.813Z,65.03
2014-07-06T00:01:52.799Z,64.17
2014-07-06T00:02:57.488Z,64.19
2014-07-06T00:04:02.178Z,65.21
2014-07-06T00:05:06.867Z,64.74
2014-07-06T00:06:11.558Z,64.01
2014-07-06T00:07:16.544Z,63.96
2014-07-06T00:08:21.233Z,64.73
2014-07-06T00:09:25.923Z,64.92
2014-07-06T00:10:30.613Z,65
2014-07-06T00:11:35.286Z,64.88
2014-07-06T00:12:40.273Z,64.82
2014-07-06T00:13:44.275Z,64.74
2014-07-06T00:14:48.965Z,64.98
2014-07-06T00:15:53.951Z,64.59
2014-07-06T00:16:58.640Z,64.25
2014-07-06T00:18:03.330Z,64.76
2014-07-06T00:19:08.019Z,64.49
2014-07-06T00:20:12.709Z,64.78
2014-07-06T00:21:17.383Z,64.3
2014-07-06T00:22:22.088Z,64.4
2014-07-06T00:23:26.778Z,64.68
2014-07-06T00:24:31.467Z,64.07
2014-07-06T00:25:36.454Z,64.78
2014-07-06T00:26:41.144Z,65.14
2014-07-06T00:27:46.130Z,65.36
2014-07-06T00:28:50.804Z,65.39
2014-07-06T00:29:55.494Z,65.65
2014-07-06T00:31:00.480Z,65.7
2014-07-06T00:32:05.466Z,65.93
2014-07-06T00:33:10.156Z,65.57
2014-07-06T00:34:14.845Z,65.45
2014-07-06T00:35:19.535Z,65.08
2014-07-06T00:36:24.224Z,64.92
2014-07-06T00:37:28.898Z,65.23
2014-07-06T00:38:33.588Z,65.26
2014-07-06T00:39:38.278Z,65.09
2014-07-06T00:40:42.983Z,65.51
2014-07-06T00:41:47.673Z,65.45
2014-07-06T00:42:52.361Z,65.53
2014-07-06T00:43:57.052Z,65.5
2014-07-06T00:45:01.740Z,65.46
2014-07-06T00:46:06.728Z,65.96
2014-07-06T00:47:11.403Z,65.8
2014-07-06T00:48:16.091Z,65.49
2014-07-06T00:49:20.782Z,65.36
2014-07-06T00:50:25.471Z,65.6
2014-07-06T00:51:30.160Z,65.4
2014-07-06T00:52:34.834Z,65.25
2014-07-06T00:53:39.523Z,65.07
2014-07-06T00:54:44.510Z,64.53
2014-07-06T00:55:49.199Z,64.69
2014-07-06T00:56:53.888Z,65.78
2014-07-06T00:57:58.563Z,65.09
2014-07-06T00:59:03.252Z,65.55
2014-07-06T01:00:07.942Z,65.45
2014-07-06T01:01:12.632Z,64.81
2014-07-06T01:02:17.321Z,64.73
2014-07-06T01:03:21.995Z,64.98
2014-07-06T01:04:26.686Z,65.07
2014-07-06T01:05:31.374Z,66.19
2014-07-06T01:06:36.065Z,65.8
2014-07-06T01:07:40.754Z,66.08
2014-07-06T01:08:45.427Z,65.91
2014-07-06T01:09:50.117Z,65.75
2014-07-06T01:10:54.806Z,65.85
2014-07-06T01:11:59.496Z,65.68
2014-07-06T01:13:04.483Z,65.74
2014-07-06T01:14:09.171Z,65.71
2014-07-06T01:15:14.159Z,65.79
2014-07-06T01:16:18.848Z,65.8
2014-07-06T01:17:23.522Z,66.12
2014-07-06T01:18:28.509Z,65.95
2014-07-06T01:19:33.198Z,65.98
2014-07-06T01:20:37.887Z,65.76
2014-07-06T01:21:42.578Z,65.51
2014-07-06T01:22:47.266Z,65.32
2014-07-06T01:23:51.941Z,65.46
2014-07-06T01:24:56.630Z,65.54
2014-07-06T01:26:01.320Z,65.71
2014-07-06T01:27:06.306Z,65.66
2014-07-06T01:28:10.996Z,65.37
2014-07-06T01:29:15.983Z,65.43
2014-07-06T01:30:20.672Z,65.04
2014-07-06T01:31:25.346Z,65.1
2014-07-06T01:32:30.035Z,65.02
2014-07-06T01:33:34.741Z,64.56
2014-07-06T01:34:39.431Z,65.71
2014-07-06T01:35:44.104Z,66.06
2014-07-06T01:36:48.794Z,65.93
2014-07-06T01:37:53.483Z,66.17
2014-07-06T01:38:58.173Z,66.57
2014-07-06T01:40:02.862Z,66.82
2014-07-06T01:41:07.583Z,66.55
2014-07-06T01:42:12.273Z,66.8
2014-07-06T01:43:16.962Z,66.92
2014-07-06T01:44:21.652Z,66.91
2014-07-06T01:45:26.342Z,67.92
2014-07-06T01:46:31.031Z,67.4
2014-07-06T01:47:35.721Z,66.41
2014-07-06T01:48:40.411Z,66.75
2014-07-06T01:49:45.381Z,66.99
2014-07-06T01:50:50.071Z,68.15
2014-07-06T01:51:54.760Z,67.25
2014-07-06T01:52:59.746Z,66.13
2014-07-06T01:54:04.436Z,65.54
2014-07-06T01:55:09.125Z,65.74
2014-07-06T01:56:13.815Z,66.31
2014-07-06T01:57:18.505Z,65.87
2014-07-06T01:58:23.195Z,66.23
2014-07-06T01:59:27.883Z,66.55
2014-07-06T02:00:32.574Z,66.59
2014-07-06T02:01:37.560Z,66.35
2014-07-06T02:02:42.250Z,66.51
2014-07-06T02:03:46.940Z,66.17
2014-07-06T02:04:51.629Z,66.68
2014-07-06T02:05:56.319Z,66.78
2014-07-06T02:07:01.008Z,66.96
2014-07-06T02:08:05.683Z,66.85
2014-07-06T02:09:10.387Z,67.06
2014-07-06T02:10:15.077Z,67.41
2014-07-06T02:11:19.767Z,67.52
2014-07-06T02:12:24.456Z,67.51
2014-07-06T02:13:29.443Z,67.49
2014-07-06T02:14:34.132Z,67.6
2014-07-06T02:15:38.806Z,67.83
2014-07-06T02:16:43.495Z,67.64
2014-07-06T02:17:48.185Z,66.74
2014-07-06T02:18:52.874Z,66.47
2014-07-06T02:19:57.564Z,67.04
2014-07-06T02:21:02.254Z,67.26
2014-07-06T02:22:06.944Z,67.56
2014-07-06T02:23:11.632Z,67.73
2014-07-06T02:24:16.323Z,68.08
2014-07-06T02:25:21.011Z,68.22
2014-07-06T02:26:25.702Z,68.24
2014-07-06T02:27:30.390Z,68.3
2014-07-06T02:28:35.081Z,68.26
2014-07-06T02:29:39.769Z,68.4
2014-07-06T02:30:44.460Z,67.32
2014-07-06T02:31:49.149Z,66.54
2014-07-06T02:32:54.136Z,66.05
2014-07-06T02:33:58.825Z,65.78
2014-07-06T02:35:03.515Z,66.24
2014-07-06T02:36:08.501Z,66.09
2014-07-06T02:37:13.191Z,66.14
2014-07-06T02:38:17.881Z,65.76
2014-07-06T02:39:22.570Z,65.6
2014-07-06T02:40:27.260Z,65.89
2014-07-06T02:41:31.950Z,66.29
2014-07-06T02:42:36.639Z,67.19
2014-07-06T02:43:41.626Z,67.42
2014-07-06T02:44:46.612Z,67.21
2014-07-06T02:45:51.317Z,66.9
2014-07-06T02:46:56.007Z,66.65
2014-07-06T02:48:00.696Z,67.41
2014-07-06T02:49:05.386Z,67.56
2014-07-06T02:50:10.075Z,67.37
2014-07-06T02:51:14.765Z,67.33
2014-07-06T02:52:19.455Z,67.93
2014-07-06T02:53:24.144Z,67.83
2014-07-06T02:54:28.834Z,67.18
2014-07-06T02:55:33.523Z,66.7
2014-07-06T02:56:38.510Z,68.48
2014-07-06T02:57:43.198Z,68.8
2014-07-06T02:58:48.186Z,67.76
2014-07-06T02:59:52.874Z,67.9
2014-07-06T03:00:57.565Z,67.69
2014-07-06T03:02:02.254Z,68.25
2014-07-06T03:03:06.944Z,68.08
2014-07-06T03:04:11.633Z,68.78
2014-07-06T03:05:16.307Z,69
2014-07-06T03:06:20.997Z,68.82
2014-07-06T03:07:25.983Z,68.54
2014-07-06T03:08:30.674Z,68.76
2014-07-06T03:09:35.362Z,68.74
2014-07-06T03:10:40.052Z,68.67
2014-07-06T03:11:45.039Z,67.8
2014-07-06T03:12:49.727Z,68.34
2014-07-06T03:13:54.418Z,68.52
2014-07-06T03:14:59.107Z,68.21
2014-07-06T03:16:03.797Z,68.7
2014-07-06T03:17:08.471Z,68.4
2014-07-06T03:18:13.473Z,68.59
2014-07-06T03:19:18.162Z,68.66
2014-07-06T03:20:22.852Z,68.87
2014-07-06T03:21:27.541Z,69.19
2014-07-06T03:22:32.231Z,68.89
2014-07-06T03:23:36.920Z,68.41
2014-07-06T03:24:41.611Z,68.78
2014-07-06T03:25:46.299Z,68.83
2014-07-06T03:26:50.990Z,69.13
2014-07-06T03:27:55.678Z,69.27
2014-07-06T03:29:00.369Z,68.74
2014-07-06T03:30:05.057Z,68.97
2014-07-06T03:31:09.748Z,68.95
2014-07-06T03:32:14.437Z,68.95
2014-07-06T03:33:19.127Z,69.37
2014-07-06T03:34:24.113Z,69.83
2014-07-06T03:35:28.787Z,69.67
2014-07-06T03:36:33.773Z,69.23
2014-07-06T03:37:38.463Z,69.29
2014-07-06T03:38:43.137Z,69.17
2014-07-06T03:39:47.826Z,69.4
2014-07-06T03:40:52.500Z,68.69
2014-07-06T03:41:57.190Z,67.79
2014-07-06T03:43:02.176Z,67.95
2014-07-06T03:44:06.850Z,67.95
2014-07-06T03:45:11.539Z,68.23
2014-07-06T03:46:16.526Z,69.41
2014-07-06T03:47:21.497Z,68.91
2014-07-06T03:48:26.186Z,68.92
2014-07-06T03:49:30.876Z,69.23
2014-07-06T03:50:36.160Z,69.21
2014-07-06T03:51:40.834Z,68.29
2014-07-06T03:52:45.523Z,67.88
2014-07-06T03:53:50.196Z,67.71
2014-07-06T03:54:54.886Z,68.27
2014-07-06T03:55:59.575Z,68.94
2014-07-06T03:57:04.249Z,69.22
2014-07-06T03:58:08.938Z,69.3
2014-07-06T03:59:13.925Z,68.25
2014-07-06T04:00:18.614Z,67.92
2014-07-06T04:01:23.304Z,67.51
2014-07-06T04:02:27.978Z,67.48
2014-07-06T04:03:32.668Z,67.28
2014-07-06T04:04:37.357Z,67.27
2014-07-06T04:05:42.047Z,67.12
2014-07-06T04:06:46.721Z,66.95
2014-07-06T04:07:51.411Z,66.83
2014-07-06T04:08:56.399Z,66.56
2014-07-06T04:10:01.087Z,67.46
2014-07-06T04:11:05.762Z,67.21
2014-07-06T04:12:10.748Z,67.33
2014-07-06T04:13:15.438Z,66.94
2014-07-06T04:14:20.425Z,66.87
2014-07-06T04:15:25.394Z,66.63
2014-07-06T04:16:30.085Z,66.98
2014-07-06T04:17:35.071Z,66.48
2014-07-06T04:18:39.745Z,66.68
2014-07-06T04:19:44.435Z,66.79
2014-07-06T04:20:49.109Z,67.36
2014-07-06T04:21:53.798Z,67.98
2014-07-06T04:22:58.785Z,68.18
2014-07-06T04:24:03.474Z,68.48
2014-07-06T04:25:08.164Z,67.75
2014-07-06T04:26:12.854Z,67.01
2014-07-06T04:27:17.542Z,67.08
2014-07-06T04:28:22.530Z,67.45
2014-07-06T04:29:27.516Z,67.85
2014-07-06T04:30:32.190Z,68.11
2014-07-06T04:31:37.176Z,68.22
2014-07-06T04:32:41.866Z,68.53
2014-07-06T04:33:46.555Z,68.71
2014-07-06T04:34:51.542Z,68.58
2014-07-06T04:35:56.217Z,68.6
2014-07-06T04:37:01.218Z,68.65
2014-07-06T04:38:05.907Z,68.02
2014-07-06T04:39:10.598Z,67.69
2014-07-06T04:40:15.287Z,67.69
2014-07-06T04:41:20.272Z,67.12
2014-07-06T04:42:24.947Z,67.34
2014-07-06T04:43:29.933Z,67.25
2014-07-06T04:44:34.623Z,66.93
2014-07-06T04:45:39.594Z,66.94
2014-07-06T04:46:44.580Z,67.13
2014-07-06T04:47:49.270Z,67.16
2014-07-06T04:48:53.959Z,67.22
2014-07-06T04:49:58.649Z,66.22
2014-07-06T04:51:03.338Z,66.64
2014-07-06T04:52:08.012Z,66.25
2014-07-06T04:53:13.000Z,65.38
2014-07-06T04:54:17.688Z,64.75
2014-07-06T04:55:22.674Z,64.59
2014-07-06T04:56:27.365Z,65.2
2014-07-06T04:57:32.038Z,65.29
2014-07-06T04:58:37.025Z,65.09
2014-07-06T04:59:42.012Z,65.15
2014-07-06T05:00:46.701Z,65.07
2014-07-06T05:01:51.391Z,65.26
2014-07-06T05:02:56.080Z,65.13
2014-07-06T05:04:00.770Z,64.87
2014-07-06T05:05:05.490Z,64.04
2014-07-06T05:06:10.180Z,63.73
2014-07-06T05:07:14.869Z,62.94
2014-07-06T05:08:19.544Z,62.72
2014-07-06T05:09:24.234Z,62.55
2014-07-06T05:10:28.922Z,62.62
2014-07-06T05:11:33.597Z,63.05
2014-07-06T05:12:38.286Z,63.24
2014-07-06T05:13:42.975Z,62.25
2014-07-06T05:14:47.666Z,61.99
2014-07-06T05:15:52.652Z,60.98
2014-07-06T05:16:57.341Z,60.66
2014-07-06T05:18:02.030Z,60.08
2014-07-06T05:19:06.719Z,60.55
2014-07-06T05:20:11.707Z,61.04
2014-07-06T05:21:16.693Z,60.56
2014-07-06T05:22:21.382Z,60.82
2014-07-06T05:23:26.071Z,60.94
2014-07-06T05:24:30.762Z,61.81
2014-07-06T05:25:35.451Z,61.29
2014-07-06T05:26:40.140Z,60.94
2014-07-06T05:27:44.814Z,61.06
2014-07-06T05:28:49.503Z,60.5
2014-07-06T05:29:54.787Z,59.84
2014-07-06T05:30:59.476Z,59.95
2014-07-06T05:32:04.166Z,59.91
2014-07-06T05:33:09.152Z,60.83
2014-07-06T05:34:13.841Z,60.51
2014-07-06T05:35:18.516Z,59.81
2014-07-06T05:36:23.206Z,59.21
2014-07-06T05:37:27.895Z,59.41
2014-07-06T05:38:32.881Z,59.34
2014-07-06T05:39:37.571Z,58.95
2014-07-06T05:40:42.557Z,59.33
2014-07-06T05:41:47.231Z,58.84
2014-07-06T05:42:51.921Z,59.27
2014-07-06T05:43:56.659Z,58.92
2014-07-06T05:45:01.645Z,58.88
2014-07-06T05:46:06.335Z,58.64
2014-07-06T05:47:11.321Z,59.47
2014-07-06T05:48:16.011Z,58.91
2014-07-06T05:49:20.700Z,58.53
2014-07-06T05:50:25.390Z,58.31
2014-07-06T05:51:30.079Z,58.82
2014-07-06T05:52:34.754Z,59.49
2014-07-06T05:53:39.443Z,58.75
2014-07-06T05:54:44.149Z,58.11
2014-07-06T05:55:48.837Z,58.6
2014-07-06T05:56:53.527Z,57.7
2014-07-06T05:57:58.216Z,57.11
2014-07-06T05:59:02.907Z,57.83
2014-07-06T06:00:07.892Z,58.44
2014-07-06T06:01:12.583Z,59.39
2014-07-06T06:02:17.272Z,59.49
2014-07-06T06:03:21.962Z,58.96
2014-07-06T06:04:26.651Z,58.43
2014-07-06T06:05:31.341Z,58.08
2014-07-06T06:06:36.029Z,58.24
2014-07-06T06:07:40.719Z,58.93
2014-07-06T06:08:45.706Z,59.39
2014-07-06T06:09:50.396Z,57.99
2014-07-06T06:10:55.382Z,54.73
2014-07-06T06:12:00.071Z,52.19
2014-07-06T06:13:04.745Z,46.54
2014-07-06T06:14:09.732Z,44.67
2014-07-06T06:15:14.717Z,42.75
2014-07-06T06:16:19.408Z,42.09
2014-07-06T06:17:24.097Z,40.76
2014-07-06T06:18:28.787Z,39.74
2014-07-06T06:19:33.492Z,39.45
2014-07-06T06:20:38.166Z,39.21
2014-07-06T06:21:42.855Z,38.48
2014-07-06T06:22:47.841Z,38.35
2014-07-06T06:23:52.531Z,37.36
2014-07-06T06:24:57.517Z,37.4
2014-07-06T06:26:02.222Z,36.53
2014-07-06T06:27:06.912Z,37.28
2014-07-06T06:28:11.601Z,40.35
2014-07-06T06:29:16.307Z,38.29
2014-07-06T06:30:21.309Z,35
2014-07-06T06:31:26.296Z,33.93
2014-07-06T06:32:31.002Z,32.94
2014-07-06T06:33:35.693Z,33.74
2014-07-06T06:34:40.381Z,33.7
2014-07-06T06:35:45.087Z,34.31
2014-07-06T06:36:49.791Z,33.07
2014-07-06T06:37:54.793Z,33.54
2014-07-06T06:38:59.780Z,34.02
2014-07-06T06:40:04.486Z,34.08
2014-07-06T06:41:09.488Z,37.64
2014-07-06T06:42:14.193Z,41.13
2014-07-06T06:43:18.882Z,43.47
2014-07-06T06:44:23.572Z,45.63
2014-07-06T06:45:28.277Z,46.41
2014-07-06T06:46:33.263Z,46.83
2014-07-06T06:47:37.953Z,48.07
2014-07-06T06:48:42.642Z,49.63
2014-07-06T06:49:47.332Z,50.79
2014-07-06T06:50:52.021Z,51.25
2014-07-06T06:51:56.712Z,51.73
2014-07-06T06:53:01.400Z,53.5
2014-07-06T06:54:05.402Z,51.97
2014-07-06T06:55:10.093Z,52.07
2014-07-06T06:56:15.078Z,51.43
2014-07-06T06:57:19.769Z,51.95
2014-07-06T06:58:24.458Z,52.26
2014-07-06T06:59:29.148Z,53.8
2014-07-06T07:00:33.837Z,53.83
2014-07-06T07:01:38.526Z,54.03
2014-07-06T07:02:43.513Z,53.13
2014-07-06T07:03:48.202Z,52.89
2014-07-06T07:04:52.892Z,52.91
2014-07-06T07:05:57.582Z,52.4
2014-07-06T07:07:02.568Z,51.77
2014-07-06T07:08:07.258Z,52.59
2014-07-06T07:09:12.243Z,54.37
2014-07-06T07:10:16.543Z,52.83
2014-07-06T07:11:21.231Z,52.42
2014-07-06T07:12:25.921Z,51.69
2014-07-06T07:13:30.611Z,51.4
2014-07-06T07:14:35.301Z,50.23
2014-07-06T07:15:39.989Z,50.36
2014-07-06T07:16:44.680Z,50.76
2014-07-06T07:17:49.369Z,51.53
2014-07-06T07:18:54.059Z,52.09
2014-07-06T07:19:58.748Z,51.97
2014-07-06T07:21:03.437Z,51.06
2014-07-06T07:22:08.423Z,51.74
2014-07-06T07:23:13.114Z,51.7
2014-07-06T07:24:17.804Z,50.71
2014-07-06T07:25:22.494Z,51.5
2014-07-06T07:26:27.184Z,51.79
2014-07-06T07:27:32.155Z,50.85
2014-07-06T07:28:36.843Z,51.22
2014-07-06T07:29:41.533Z,50.56
2014-07-06T07:30:46.223Z,51.31
2014-07-06T07:31:50.913Z,51.22
2014-07-06T07:32:55.617Z,51.47
2014-07-06T07:34:00.308Z,50.97
2014-07-06T07:35:05.293Z,50.76
2014-07-06T07:36:09.982Z,50.63
2014-07-06T07:37:14.673Z,50.28
2014-07-06T07:38:19.659Z,48.79
2014-07-06T07:39:24.660Z,48.44
2014-07-06T07:40:29.351Z,47.56
2014-07-06T07:41:34.353Z,49.14
2014-07-06T07:42:39.041Z,48.49
2014-07-06T07:43:43.732Z,48.67
2014-07-06T07:44:48.717Z,47.83
2014-07-06T07:45:53.408Z,47.45
2014-07-06T07:46:58.097Z,47.9
2014-07-06T07:48:02.896Z,47.98
2014-07-06T07:49:07.882Z,48.56
2014-07-06T07:50:12.572Z,47.82
2014-07-06T07:51:17.558Z,48.17
2014-07-06T07:52:22.248Z,48.31
2014-07-06T07:53:26.937Z,47.71
2014-07-06T07:54:31.627Z,47.43
2014-07-06T07:55:36.318Z,47.11
2014-07-06T07:56:41.008Z,48.65
2014-07-06T07:57:45.697Z,48.45
2014-07-06T07:58:50.386Z,47.93
2014-07-06T07:59:55.076Z,48.61
2014-07-06T08:00:59.765Z,48.69
2014-07-06T08:02:04.454Z,49.04
2014-07-06T08:03:09.145Z,48.46
2014-07-06T08:04:13.834Z,47.74
2014-07-06T08:05:18.528Z,46.98
2014-07-06T08:06:23.259Z,46.87
2014-07-06T08:07:27.989Z,46.93
2014-07-06T08:08:33.019Z,46.4
2014-07-06T08:09:37.750Z,46.52
2014-07-06T08:10:42.470Z,46.65
2014-07-06T08:11:47.175Z,46.14
2014-07-06T08:12:52.175Z,47.19
2014-07-06T08:13:56.879Z,47
2014-07-06T08:15:01.879Z,47.33
2014-07-06T08:16:06.578Z,47.75
2014-07-06T08:17:11.570Z,47.59
2014-07-06T08:18:16.567Z,46.71
2014-07-06T08:19:21.262Z,46.35
2014-07-06T08:20:25.956Z,45.9
2014-07-06T08:21:30.662Z,45.45
2014-07-06T08:22:35.651Z,45.48
2014-07-06T08:23:39.655Z,45.95
2014-07-06T08:24:44.346Z,44.86
2014-07-06T08:25:49.334Z,45.65
2014-07-06T08:26:54.023Z,45.27
2014-07-06T08:27:58.715Z,44.36
2014-07-06T08:29:03.404Z,44.54
2014-07-06T08:30:08.391Z,44.52
2014-07-06T08:31:13.081Z,44.29
2014-07-06T08:32:17.770Z,44.63
2014-07-06T08:33:22.461Z,45.15
2014-07-06T08:34:27.152Z,45.07
2014-07-06T08:35:31.842Z,44.26
2014-07-06T08:36:36.828Z,43.86
2014-07-06T08:37:41.518Z,43.99
2014-07-06T08:38:46.207Z,43.44
2014-07-06T08:39:50.897Z,44.26
2014-07-06T08:40:55.883Z,44.46
2014-07-06T08:42:01.166Z,43.68
2014-07-06T08:43:05.856Z,42.96
2014-07-06T08:44:10.545Z,42.37
2014-07-06T08:45:15.250Z,42.33
2014-07-06T08:46:20.236Z,42.69
2014-07-06T08:47:24.925Z,40.98
2014-07-06T08:48:29.618Z,41.48
2014-07-06T08:49:34.307Z,42.12
2014-07-06T08:50:39.605Z,41.98
2014-07-06T08:51:44.295Z,42.83
2014-07-06T08:52:48.984Z,43.11
2014-07-06T08:53:53.675Z,41.69
2014-07-06T08:54:57.676Z,41.8
2014-07-06T08:56:02.365Z,41.36
2014-07-06T08:57:07.353Z,41.97
2014-07-06T08:58:12.338Z,41.82
2014-07-06T08:59:17.029Z,42.03
2014-07-06T09:00:22.015Z,41.18
2014-07-06T09:01:26.704Z,41.97
2014-07-06T09:02:31.394Z,41.65
2014-07-06T09:03:36.380Z,41.89
2014-07-06T09:04:41.367Z,41.71
2014-07-06T09:05:46.369Z,41.75
2014-07-06T09:06:51.058Z,42.17
2014-07-06T09:07:55.748Z,41.29
2014-07-06T09:09:00.437Z,42.03
2014-07-06T09:10:05.126Z,40.34
2014-07-06T09:11:10.112Z,40.93
2014-07-06T09:12:14.802Z,40.41
2014-07-06T09:13:19.788Z,40.74
2014-07-06T09:14:24.477Z,40.86
2014-07-06T09:15:29.169Z,41.06
2014-07-06T09:16:33.858Z,40.91
2014-07-06T09:17:38.548Z,40.94
2014-07-06T09:18:43.534Z,40.98
2014-07-06T09:19:48.224Z,40.85
2014-07-06T09:20:52.929Z,41.19
2014-07-06T09:21:57.618Z,41.08
2014-07-06T09:23:02.308Z,41
2014-07-06T09:24:06.997Z,40.41
2014-07-06T09:25:11.688Z,40.63
2014-07-06T09:26:15.689Z,41.2
2014-07-06T09:27:20.378Z,40.89
2014-07-06T09:28:25.069Z,40.66
2014-07-06T09:29:29.758Z,41.49
2014-07-06T09:30:34.744Z,41.46
2014-07-06T09:31:39.731Z,41.44
2014-07-06T09:32:43.733Z,40.64
2014-07-06T09:33:48.720Z,39.75
2014-07-06T09:34:53.408Z,39.95
2014-07-06T09:35:58.394Z,39.36
2014-07-06T09:37:03.084Z,39.27
2014-07-06T09:38:07.774Z,39.52
2014-07-06T09:39:12.479Z,39.46
2014-07-06T09:40:17.168Z,39.63
2014-07-06T09:41:22.154Z,39.41
2014-07-06T09:42:27.143Z,39.99
2014-07-06T09:43:31.832Z,39.69
2014-07-06T09:44:36.522Z,39.71
2014-07-06T09:45:41.507Z,39.65
2014-07-06T09:46:46.494Z,39.99
2014-07-06T09:47:51.183Z,40.56
2014-07-06T09:48:55.888Z,40.31
2014-07-06T09:50:00.578Z,40.31
2014-07-06T09:51:05.564Z,40.11
2014-07-06T09:52:10.254Z,39.71
2014-07-06T09:53:15.241Z,39.61
2014-07-06T09:54:19.929Z,38.57
2014-07-06T09:55:24.619Z,39.4
2014-07-06T09:56:29.308Z,39.64
2014-07-06T09:57:33.998Z,39.47
2014-07-06T09:58:38.704Z,39.57
2014-07-06T09:59:43.393Z,39.31
2014-07-06T10:00:48.380Z,40.39
2014-07-06T10:01:53.085Z,39.66
2014-07-06T10:02:57.775Z,39.29
2014-07-06T10:04:02.761Z,38.55
2014-07-06T10:05:07.747Z,38.92
2014-07-06T10:06:12.437Z,38.88
2014-07-06T10:07:17.142Z,39.59
2014-07-06T10:08:21.833Z,39.72
2014-07-06T10:09:26.523Z,39.58
2014-07-06T10:10:31.212Z,39.46
2014-07-06T10:11:35.901Z,39.25
2014-07-06T10:12:40.591Z,38.93
2014-07-06T10:13:45.281Z,39.32
2014-07-06T10:14:50.267Z,40.21
2014-07-06T10:15:54.971Z,38.44
2014-07-06T10:16:59.662Z,38.74
2014-07-06T10:18:04.647Z,38.79
2014-07-06T10:19:09.353Z,38.4
2014-07-06T10:20:14.042Z,38.45
2014-07-06T10:21:18.732Z,38.76
2014-07-06T10:22:23.422Z,38.87
2014-07-06T10:23:28.423Z,38.43
2014-07-06T10:24:33.112Z,38.91
2014-07-06T10:25:37.803Z,39.14
2014-07-06T10:26:42.788Z,39.32
2014-07-06T10:27:47.479Z,39
2014-07-06T10:28:52.184Z,39.99
2014-07-06T10:29:57.169Z,39.57
2014-07-06T10:31:01.860Z,39.85
2014-07-06T10:32:06.549Z,38.44
2014-07-06T10:33:11.239Z,39.02
2014-07-06T10:34:15.928Z,39.24
2014-07-06T10:35:20.618Z,39.07
2014-07-06T10:36:25.309Z,38.78
2014-07-06T10:37:29.999Z,38.46
2014-07-06T10:38:34.687Z,39.13
2014-07-06T10:39:39.377Z,37.97
2014-07-06T10:40:44.066Z,37.68
2014-07-06T10:41:48.756Z,37.49
2014-07-06T10:42:53.742Z,37.2
2014-07-06T10:43:58.432Z,36.99
2014-07-06T10:45:03.121Z,37.05
2014-07-06T10:46:07.811Z,37.37
2014-07-06T10:47:12.500Z,37.85
2014-07-06T10:48:17.205Z,37.45
2014-07-06T10:49:21.895Z,38.17
2014-07-06T10:50:26.881Z,38.24
2014-07-06T10:51:31.573Z,38.57
2014-07-06T10:52:36.278Z,37.95
2014-07-06T10:53:40.966Z,37.91
2014-07-06T10:54:45.657Z,37.66
2014-07-06T10:55:50.346Z,37.46
2014-07-06T10:56:55.036Z,36.74
2014-07-06T10:57:59.725Z,36.9
2014-07-06T10:59:04.711Z,37.51
2014-07-06T11:00:09.416Z,36.96
2014-07-06T11:01:14.105Z,36.9
2014-07-06T11:02:19.092Z,35.96
2014-07-06T11:03:24.375Z,37.63
2014-07-06T11:04:29.377Z,37.03
2014-07-06T11:05:34.068Z,37.22
2014-07-06T11:06:38.757Z,37.01
2014-07-06T11:07:43.447Z,37.15
2014-07-06T11:08:48.136Z,36.56
2014-07-06T11:09:52.842Z,37.12
2014-07-06T11:10:57.828Z,36.86
2014-07-06T11:12:02.814Z,36.85
2014-07-06T11:13:07.801Z,36.73
2014-07-06T11:14:12.491Z,37.07
2014-07-06T11:15:17.179Z,37.71
2014-07-06T11:16:21.884Z,37.03
2014-07-06T11:17:26.575Z,36.9
2014-07-06T11:18:31.561Z,36.76
2014-07-06T11:19:36.251Z,36.71
2014-07-06T11:20:41.237Z,36.68
2014-07-06T11:21:45.927Z,36.53
2014-07-06T11:22:50.929Z,36.79
2014-07-06T11:23:55.618Z,37.57
2014-07-06T11:25:00.308Z,37.16
2014-07-06T11:26:05.013Z,37.34
2014-07-06T11:27:09.701Z,37.09
2014-07-06T11:28:14.392Z,37.38
2014-07-06T11:29:19.081Z,37.4
2014-07-06T11:30:23.772Z,37.45
2014-07-06T11:31:29.071Z,37.48
2014-07-06T11:32:33.760Z,37.12
2014-07-06T11:33:37.075Z,36.33
2014-07-06T11:34:41.764Z,37.1
2014-07-06T11:35:46.454Z,36.61
2014-07-06T11:36:51.143Z,37.23
2014-07-06T11:37:55.833Z,37.46
2014-07-06T11:39:00.522Z,37.21
2014-07-06T11:40:05.227Z,36.95
2014-07-06T11:41:09.917Z,37.25
2014-07-06T11:42:13.919Z,37.13
2014-07-06T11:43:18.608Z,37.38
2014-07-06T11:44:23.297Z,36.54
2014-07-06T11:45:28.004Z,36.84
2014-07-06T11:46:32.990Z,36.12
2014-07-06T11:47:37.977Z,36.59
2014-07-06T11:48:42.681Z,36.96
2014-07-06T11:49:47.667Z,36.88
2014-07-06T11:50:52.358Z,37.08
2014-07-06T11:51:57.046Z,36.64
2014-07-06T11:53:02.049Z,37.01
2014-07-06T11:54:06.739Z,36.84
2014-07-06T11:55:11.724Z,35.88
2014-07-06T11:56:16.413Z,36.11
2014-07-06T11:57:21.104Z,36.66
2014-07-06T11:58:25.792Z,35.78
2014-07-06T11:59:30.796Z,36.46
2014-07-06T12:00:35.486Z,36.6
2014-07-06T12:01:40.472Z,36.33
2014-07-06T12:02:45.459Z,35.78
2014-07-06T12:03:50.165Z,35.92
2014-07-06T12:04:54.853Z,36
2014-07-06T12:05:59.840Z,36.79
2014-07-06T12:07:04.827Z,37.14
2014-07-06T12:08:09.516Z,38.12
2014-07-06T12:09:14.502Z,37.87
2014-07-06T12:10:19.488Z,37.67
2014-07-06T12:11:24.178Z,38.23
2014-07-06T12:12:28.867Z,37.94
2014-07-06T12:13:33.869Z,38.28
2014-07-06T12:14:38.559Z,37.69
2014-07-06T12:15:43.264Z,37.07
2014-07-06T12:16:47.953Z,37.59
2014-07-06T12:17:52.644Z,37.44
2014-07-06T12:18:57.332Z,37.31
2014-07-06T12:20:02.319Z,36.94
2014-07-06T12:21:07.008Z,37
2014-07-06T12:22:11.698Z,37.2
2014-07-06T12:23:16.387Z,36.86
2014-07-06T12:24:21.374Z,37.24
2014-07-06T12:25:26.065Z,36.16
2014-07-06T12:26:30.754Z,36.72
2014-07-06T12:27:35.756Z,36.76
2014-07-06T12:28:40.742Z,36.61
2014-07-06T12:29:45.432Z,37.1
2014-07-06T12:30:50.121Z,36.67
2014-07-06T12:31:54.811Z,36.84
2014-07-06T12:32:59.500Z,37.31
2014-07-06T12:34:04.190Z,37.16
2014-07-06T12:35:08.895Z,37.44
2014-07-06T12:36:12.897Z,37.42
2014-07-06T12:37:17.586Z,37.77
2014-07-06T12:38:22.276Z,37.67
2014-07-06T12:39:27.264Z,37.49
2014-07-06T12:40:32.266Z,37.43
2014-07-06T12:41:36.956Z,37.34
2014-07-06T12:42:42.238Z,37.71
2014-07-06T12:43:46.943Z,37.76
2014-07-06T12:44:51.632Z,37.62
2014-07-06T12:45:56.635Z,37.65
2014-07-06T12:47:01.324Z,38.05
2014-07-06T12:48:06.013Z,37.36
2014-07-06T12:49:10.703Z,37.28
2014-07-06T12:50:15.689Z,37.6
2014-07-06T12:51:20.379Z,38.36
2014-07-06T12:52:25.367Z,37.3
2014-07-06T12:53:30.072Z,37.29
2014-07-06T12:54:34.762Z,37.3
2014-07-06T12:55:39.764Z,37.02
2014-07-06T12:56:44.468Z,36.95
2014-07-06T12:57:49.157Z,37.16
2014-07-06T12:58:54.145Z,37.02
2014-07-06T12:59:58.833Z,36.92
2014-07-06T13:01:03.538Z,36.89
2014-07-06T13:02:08.229Z,37.25
2014-07-06T13:03:12.933Z,36.51
2014-07-06T13:04:17.638Z,36.6
2014-07-06T13:05:22.328Z,35.92
2014-07-06T13:06:27.017Z,36.28
2014-07-06T13:07:32.006Z,36.28
2014-07-06T13:08:36.710Z,35.36
2014-07-06T13:09:41.399Z,35.48
2014-07-06T13:10:46.386Z,35.68
2014-07-06T13:11:51.372Z,35.39
2014-07-06T13:12:56.374Z,34.92
2014-07-06T13:14:01.360Z,35.13
2014-07-06T13:15:06.051Z,35.55
2014-07-06T13:16:10.739Z,35.14
2014-07-06T13:17:15.429Z,34.26
2014-07-06T13:18:20.415Z,35.03
2014-07-06T13:19:25.120Z,35.05
2014-07-06T13:20:29.810Z,34.84
2014-07-06T13:21:34.499Z,34.6
2014-07-06T13:22:39.189Z,35.3
2014-07-06T13:23:44.175Z,35.23
2014-07-06T13:24:48.866Z,34.95
2014-07-06T13:25:53.572Z,34.95
2014-07-06T13:26:57.574Z,35.17
2014-07-06T13:28:02.263Z,34.68
2014-07-06T13:29:07.250Z,34.54
2014-07-06T13:30:11.564Z,33.89
2014-07-06T13:31:16.551Z,34.26
2014-07-06T13:32:21.256Z,34.43
2014-07-06T13:33:26.241Z,35.05
2014-07-06T13:34:30.931Z,34.13
2014-07-06T13:35:35.620Z,34.61
2014-07-06T13:36:40.606Z,35.12
2014-07-06T13:37:45.313Z,34.82
2014-07-06T13:38:50.314Z,35.13
2014-07-06T13:39:55.003Z,34.81
2014-07-06T13:40:59.989Z,34.99
2014-07-06T13:42:04.679Z,35.27
2014-07-06T13:43:09.978Z,34.3
2014-07-06T13:44:14.667Z,35.57
2014-07-06T13:45:19.671Z,35.53
2014-07-06T13:46:24.361Z,35.57
2014-07-06T13:47:29.051Z,35.23
2014-07-06T13:48:33.741Z,35.24
2014-07-06T13:49:38.430Z,36.03
2014-07-06T13:50:43.134Z,35.77
2014-07-06T13:51:47.824Z,35.67
2014-07-06T13:52:52.810Z,35.73
2014-07-06T13:53:57.500Z,35.73
2014-07-06T13:55:02.486Z,36.02
2014-07-06T13:56:07.488Z,36.41
2014-07-06T13:57:12.177Z,36.98